createdAt,value
2023-03-14T00:01:22.124Z,2.15
2023-03-14T00:03:50.455Z,4.45
2023-03-14T00:06:20.290Z,1.77
2023-03-14T00:08:49.141Z,2.22
2023-03-14T00:11:20.659Z,2.33
2023-03-14T00:13:53.328Z,1.92
2023-03-14T00:16:22.248Z,2.92
2023-03-14T00:18:51.151Z,2.58
2023-03-14T00:21:20.303Z,1.90
2023-03-14T00:23:48.623Z,0.85
2023-03-14T00:26:20.427Z,0.40
2023-03-14T00:28:49.656Z,0.57
2023-03-14T00:31:18.687Z,1.20
2023-03-14T00:33:47.867Z,2.03
2023-03-14T00:36:19.261Z,1.58
2023-03-14T00:38:50.244Z,2.17
2023-03-14T00:41:21.068Z,0.57
2023-03-14T00:43:49.503Z,0.40
2023-03-14T00:46:18.726Z,1.58
2023-03-14T00:48:48.152Z,1.45
2023-03-14T00:51:17.011Z,0.50
2023-03-14T00:53:45.754Z,0.40
2023-03-14T00:56:15.034Z,0.75
2023-03-14T00:58:43.395Z,0.50
2023-03-14T01:01:22.227Z,1.13
2023-03-14T01:03:54.298Z,0.40
2023-03-14T01:06:28.656Z,0.98
2023-03-14T01:08:58.180Z,1.55
2023-03-14T01:11:33.010Z,0.68
2023-03-14T01:14:02.314Z,1.13
2023-03-14T01:16:33.226Z,0.40
2023-03-14T01:19:01.588Z,1.40
2023-03-14T01:21:36.000Z,0.40
2023-03-14T01:26:36.341Z,0.82
2023-03-14T01:29:05.884Z,0.30
2023-03-14T01:31:34.347Z,0.70
2023-03-14T01:34:03.011Z,0.85
2023-03-14T01:36:31.895Z,0.35
2023-03-14T01:39:00.187Z,0.85
2023-03-14T01:41:28.690Z,0.57
2023-03-14T01:43:56.932Z,1.45
2023-03-14T01:46:30.822Z,0.70
2023-03-14T01:49:28.927Z,0.68
2023-03-14T01:52:00.171Z,1.42
2023-03-14T01:54:53.907Z,0.47
2023-03-14T01:57:47.729Z,0.30
2023-03-14T02:00:23.003Z,0.65
2023-03-14T02:02:55.503Z,0.50
2023-03-14T02:05:34.297Z,0.50
2023-03-14T02:08:04.705Z,0.30
2023-03-14T02:10:42.954Z,0.47
2023-03-14T02:13:12.564Z,0.63
2023-03-14T02:15:41.506Z,0.30
2023-03-14T02:18:11.169Z,0.40
2023-03-14T02:20:42.271Z,0.40
2023-03-14T02:23:10.760Z,0.40
2023-03-14T02:26:00.502Z,0.60
2023-03-14T02:28:28.780Z,1.00
2023-03-14T02:30:56.995Z,0.95
2023-03-14T02:33:25.905Z,2.70
2023-03-14T02:36:06.647Z,0.50
2023-03-14T02:38:37.753Z,0.75
2023-03-14T02:41:06.308Z,0.50
2023-03-14T02:43:34.532Z,0.60
2023-03-14T02:46:04.046Z,0.60
2023-03-14T02:48:37.346Z,0.70
2023-03-14T02:51:05.825Z,0.40
2023-03-14T02:53:36.415Z,0.80
2023-03-14T02:56:05.361Z,1.00
2023-03-14T02:58:33.637Z,0.63
2023-03-14T03:01:01.921Z,0.75
2023-03-14T03:03:30.307Z,0.40
2023-03-14T03:05:59.437Z,0.82
2023-03-14T03:08:29.217Z,0.82
2023-03-14T03:10:59.932Z,0.75
2023-03-14T03:13:28.619Z,0.93
2023-03-14T03:15:57.643Z,1.60
2023-03-14T03:18:25.916Z,3.03
2023-03-14T03:20:54.167Z,7.95
2023-03-14T03:23:22.433Z,12.10
2023-03-14T03:25:52.871Z,3.08
2023-03-14T03:28:21.956Z,2.50
2023-03-14T03:30:50.273Z,1.65
2023-03-14T03:33:18.498Z,0.50
2023-03-14T03:35:51.936Z,2.30
2023-03-14T03:38:21.990Z,1.55
2023-03-14T03:40:50.240Z,1.10
2023-03-14T03:43:18.470Z,1.50
2023-03-14T03:45:46.701Z,1.85
2023-03-14T03:48:14.951Z,1.83
2023-03-14T03:50:47.991Z,1.10
2023-03-14T03:53:26.817Z,1.00
2023-03-14T03:56:00.837Z,0.80
2023-03-14T03:58:29.015Z,2.05
2023-03-14T04:00:57.262Z,0.85
2023-03-14T04:03:25.774Z,1.10
2023-03-14T04:06:08.257Z,1.73
2023-03-14T04:08:36.596Z,0.75
2023-03-14T04:11:06.143Z,0.70
2023-03-14T04:13:34.660Z,0.40
2023-03-14T04:16:03.171Z,1.15
2023-03-14T04:18:32.192Z,1.85
2023-03-14T04:21:00.721Z,0.90
2023-03-14T04:23:29.083Z,0.93
2023-03-14T04:25:57.354Z,1.95
2023-03-14T04:28:25.615Z,0.63
2023-03-14T04:30:53.894Z,1.13
2023-03-14T04:33:22.296Z,1.05
2023-03-14T04:35:52.018Z,1.45
2023-03-14T04:38:20.258Z,0.82
2023-03-14T04:40:48.461Z,3.08
2023-03-14T04:43:16.699Z,1.60
2023-03-14T04:45:45.385Z,1.27
2023-03-14T04:48:14.528Z,1.38
2023-03-14T04:50:42.766Z,2.53
2023-03-14T04:53:10.958Z,0.60
2023-03-14T04:55:39.130Z,2.03
2023-03-14T04:58:07.938Z,0.98
2023-03-14T05:00:38.733Z,0.90
2023-03-14T05:03:07.721Z,1.13
2023-03-14T05:05:36.038Z,1.27
2023-03-14T05:08:04.540Z,1.80
2023-03-14T05:10:32.726Z,3.53
2023-03-14T05:13:00.959Z,0.93
2023-03-14T05:15:29.387Z,1.42
2023-03-14T05:17:57.623Z,0.70
2023-03-14T05:20:25.809Z,1.45
2023-03-14T05:22:53.996Z,1.48
2023-03-14T05:25:22.204Z,1.15
2023-03-14T05:27:50.534Z,0.68
2023-03-14T05:30:18.917Z,0.85
2023-03-14T05:32:47.145Z,1.48
2023-03-14T05:35:15.385Z,1.02
2023-03-14T05:37:43.599Z,0.73
2023-03-14T05:40:12.503Z,2.05
2023-03-14T05:42:40.786Z,3.00
2023-03-14T05:45:09.461Z,0.70
2023-03-14T05:47:37.684Z,1.70
2023-03-14T05:50:06.257Z,1.92
2023-03-14T05:52:34.551Z,2.35
2023-03-14T05:55:02.779Z,1.48
2023-03-14T05:57:30.980Z,1.95
2023-03-14T05:59:59.172Z,3.58
2023-03-14T06:02:27.448Z,5.75
2023-03-14T06:04:55.709Z,3.17
2023-03-14T06:07:23.908Z,5.80
2023-03-14T06:09:52.269Z,4.35
2023-03-14T06:12:20.927Z,5.00
2023-03-14T06:14:49.260Z,4.10
2023-03-14T06:17:18.103Z,5.43
2023-03-14T06:19:46.321Z,3.80
2023-03-14T06:22:15.277Z,3.38
2023-03-14T06:24:43.667Z,3.95
2023-03-14T06:27:11.882Z,2.45
2023-03-14T06:29:40.103Z,2.92
2023-03-14T06:32:08.400Z,1.20
2023-03-14T06:34:36.633Z,4.15
2023-03-14T06:37:04.840Z,1.02
2023-03-14T06:39:33.397Z,2.83
2023-03-14T06:42:01.577Z,3.10
2023-03-14T06:44:29.734Z,2.17
2023-03-14T06:46:58.081Z,3.33
2023-03-14T06:49:26.422Z,1.35
2023-03-14T06:51:54.606Z,2.28
2023-03-14T06:54:22.816Z,1.33
2023-03-14T06:56:51.542Z,2.13
2023-03-14T06:59:19.822Z,1.73
2023-03-14T07:01:50.137Z,2.13
2023-03-14T07:04:19.476Z,2.20
2023-03-14T07:06:48.262Z,2.38
2023-03-14T07:09:18.888Z,3.33
2023-03-14T07:11:47.161Z,1.90
2023-03-14T07:14:15.346Z,4.25
2023-03-14T07:16:43.570Z,2.75
2023-03-14T07:19:11.766Z,3.20
2023-03-14T07:21:40.251Z,2.38
2023-03-14T07:24:08.625Z,1.52
2023-03-14T07:26:36.958Z,1.38
2023-03-14T07:29:05.167Z,3.35
2023-03-14T07:31:33.653Z,1.40
2023-03-14T07:34:01.956Z,2.17
2023-03-14T07:36:30.212Z,2.33
2023-03-14T07:38:58.479Z,2.38
2023-03-14T07:41:26.705Z,1.85
2023-03-14T07:43:54.902Z,2.35
2023-03-14T07:46:23.247Z,4.38
2023-03-14T07:48:51.763Z,3.28
2023-03-14T07:51:19.942Z,2.28
2023-03-14T07:53:48.117Z,1.95
2023-03-14T07:56:16.338Z,3.30
2023-03-14T07:58:44.527Z,2.00
2023-03-14T08:01:12.784Z,1.90
2023-03-14T08:03:41.020Z,2.55
2023-03-14T08:06:09.382Z,2.15
2023-03-14T08:08:37.552Z,2.28
2023-03-14T08:11:07.837Z,1.42
2023-03-14T08:13:36.725Z,2.97
2023-03-14T08:16:05.888Z,2.33
2023-03-14T08:18:34.291Z,1.90
2023-03-14T08:21:03.112Z,1.63
2023-03-14T08:23:31.319Z,1.55
2023-03-14T08:25:59.597Z,1.23
2023-03-14T08:28:32.317Z,1.40
2023-03-14T08:31:00.896Z,2.65
2023-03-14T08:33:31.450Z,2.58
2023-03-14T08:36:01.983Z,3.78
2023-03-14T08:38:30.958Z,1.58
2023-03-14T08:41:00.675Z,2.17
2023-03-14T08:43:30.310Z,1.30
2023-03-14T08:46:02.527Z,2.05
2023-03-14T08:48:32.233Z,4.90
2023-03-14T08:51:17.070Z,3.20
2023-03-14T08:53:45.296Z,2.80
2023-03-14T08:56:13.500Z,1.52
2023-03-14T08:58:43.149Z,2.60
2023-03-14T09:01:12.920Z,1.85
2023-03-14T09:03:41.355Z,3.00
2023-03-14T09:06:12.324Z,1.88
2023-03-14T09:08:40.505Z,2.83
2023-03-14T09:11:11.921Z,4.20
2023-03-14T09:13:40.314Z,2.42
2023-03-14T09:16:09.750Z,4.22
2023-03-14T09:18:38.667Z,3.55
2023-03-14T09:21:07.258Z,3.38
2023-03-14T09:23:35.611Z,4.47
2023-03-14T09:26:03.856Z,3.83
2023-03-14T09:28:32.291Z,5.88
2023-03-14T09:31:00.491Z,3.28
2023-03-14T09:33:28.929Z,4.82
2023-03-14T09:36:01.793Z,4.07
2023-03-14T09:38:30.272Z,5.00
2023-03-14T09:41:01.349Z,4.30
2023-03-14T09:43:33.618Z,3.22
2023-03-14T09:46:04.895Z,2.78
2023-03-14T09:48:35.962Z,2.88
2023-03-14T09:51:13.725Z,7.03
2023-03-14T09:53:44.955Z,3.47
2023-03-14T09:56:20.979Z,1.88
2023-03-14T09:59:02.111Z,1.33
2023-03-14T10:01:33.447Z,4.18
2023-03-14T10:04:25.038Z,4.43
2023-03-14T10:06:53.339Z,2.17
2023-03-14T10:09:29.375Z,3.13
2023-03-14T10:12:02.395Z,3.42
2023-03-14T10:14:46.736Z,2.90
2023-03-14T10:17:16.046Z,2.42
2023-03-14T10:19:56.068Z,1.80
2023-03-14T10:22:28.078Z,2.80
2023-03-14T10:25:01.263Z,1.40
2023-03-14T10:27:37.615Z,3.45
2023-03-14T10:30:09.850Z,2.65
2023-03-14T10:32:40.550Z,2.45
2023-03-14T10:35:17.561Z,2.63
2023-03-14T10:38:00.578Z,3.40
2023-03-14T10:40:41.997Z,2.67
2023-03-14T10:43:18.547Z,3.47
2023-03-14T10:45:53.426Z,2.47
2023-03-14T10:48:26.159Z,2.95
2023-03-14T10:51:10.727Z,3.67
2023-03-14T10:54:03.967Z,2.00
2023-03-14T10:56:39.722Z,1.90
2023-03-14T10:59:17.289Z,2.45
2023-03-14T11:01:55.330Z,1.10
2023-03-14T11:04:41.268Z,2.33
2023-03-14T11:07:18.210Z,2.63
2023-03-14T11:10:02.980Z,3.60
2023-03-14T11:12:45.942Z,2.28
2023-03-14T11:15:51.320Z,2.55
2023-03-14T11:18:57.260Z,3.88
2023-03-14T11:21:52.272Z,1.35
2023-03-14T11:24:44.569Z,4.35
2023-03-14T11:27:27.515Z,2.85
2023-03-14T11:30:04.380Z,3.00
2023-03-14T11:32:39.269Z,1.52
2023-03-14T11:35:26.406Z,1.48
2023-03-14T11:38:04.431Z,4.28
2023-03-14T11:40:35.505Z,2.15
2023-03-14T11:43:30.612Z,2.25
2023-03-14T11:46:11.655Z,0.98
2023-03-14T11:49:04.176Z,3.30
2023-03-14T11:51:38.903Z,3.85
2023-03-14T11:54:44.707Z,1.48
2023-03-14T11:57:17.486Z,2.38
2023-03-14T11:59:57.471Z,3.17
2023-03-14T12:02:34.432Z,3.08
2023-03-14T12:05:24.182Z,1.38
2023-03-14T12:08:10.934Z,1.52
2023-03-14T12:10:43.396Z,2.28
2023-03-14T12:13:13.662Z,1.73
2023-03-14T12:15:48.634Z,1.63
2023-03-14T12:18:44.321Z,1.65
2023-03-14T12:21:14.833Z,1.23
2023-03-14T12:23:59.274Z,2.58
2023-03-14T12:26:31.200Z,3.80
2023-03-14T12:28:59.362Z,1.83
2023-03-14T12:31:33.662Z,1.15
2023-03-14T12:34:14.322Z,1.27
2023-03-14T12:37:10.968Z,0.70
2023-03-14T12:40:00.629Z,1.00
2023-03-14T12:43:02.800Z,2.47
2023-03-14T12:45:36.997Z,1.55
2023-03-14T12:48:21.411Z,1.33
2023-03-14T12:50:58.587Z,2.65
2023-03-14T12:54:02.694Z,1.67
2023-03-14T12:56:45.840Z,1.52
2023-03-14T12:59:40.216Z,1.40
2023-03-14T13:02:08.320Z,2.27
2023-03-14T13:05:24.342Z,2.45
2023-03-14T13:07:57.089Z,3.90
2023-03-14T13:10:38.107Z,1.92
2023-03-14T13:13:28.749Z,2.25
2023-03-14T13:16:05.424Z,2.25
2023-03-14T13:18:38.063Z,1.60
2023-03-14T13:21:21.416Z,2.25
2023-03-14T13:24:24.701Z,2.78
2023-03-14T13:26:56.251Z,5.60
2023-03-14T13:29:27.608Z,2.40
2023-03-14T13:32:01.342Z,2.60
2023-03-14T13:34:38.729Z,1.75
2023-03-14T13:37:07.319Z,2.15
2023-03-14T13:39:35.572Z,1.52
2023-03-14T13:42:04.285Z,1.48
2023-03-14T13:44:34.088Z,2.85
2023-03-14T13:47:04.074Z,1.20
2023-03-14T13:49:37.313Z,3.22
2023-03-14T13:52:07.044Z,4.53
2023-03-14T13:54:35.547Z,3.33
2023-03-14T13:57:06.215Z,1.60
2023-03-14T13:59:36.901Z,2.38
2023-03-14T14:02:18.439Z,1.58
2023-03-14T14:04:48.568Z,3.50
2023-03-14T14:07:20.371Z,2.38
2023-03-14T14:09:51.939Z,3.22
2023-03-14T14:12:26.866Z,3.67
2023-03-14T14:15:03.841Z,2.45
2023-03-14T14:17:45.837Z,2.45
2023-03-14T14:20:25.290Z,4.60
2023-03-14T14:22:54.300Z,2.40
2023-03-14T14:25:22.625Z,3.63
2023-03-14T14:27:52.402Z,3.00
2023-03-14T14:30:20.592Z,1.92
2023-03-14T14:32:52.392Z,1.65
2023-03-14T14:35:32.710Z,2.40
2023-03-14T14:38:01.513Z,3.05
2023-03-14T14:40:32.066Z,1.58
2023-03-14T14:43:07.733Z,3.70
2023-03-14T14:45:37.183Z,2.58
2023-03-14T14:48:13.839Z,1.25
2023-03-14T14:50:59.328Z,2.90
2023-03-14T14:53:42.860Z,2.10
2023-03-14T14:56:24.320Z,2.50
2023-03-14T14:58:52.573Z,2.83
2023-03-14T15:01:24.496Z,1.08
2023-03-14T15:03:56.323Z,2.05
2023-03-14T15:06:30.312Z,0.45
2023-03-14T15:08:59.175Z,1.35
2023-03-14T15:11:28.520Z,1.00
2023-03-14T15:13:56.894Z,1.58
2023-03-14T15:16:30.463Z,0.98
2023-03-14T15:19:03.244Z,0.93
2023-03-14T15:21:35.272Z,1.23
2023-03-14T15:24:07.621Z,1.10
2023-03-14T15:26:35.960Z,0.90
2023-03-14T15:29:04.218Z,1.30
2023-03-14T15:31:32.547Z,0.75
2023-03-14T15:34:00.904Z,4.80
2023-03-14T15:36:35.417Z,1.10
2023-03-14T15:39:04.250Z,0.47
2023-03-14T15:41:32.652Z,0.65
2023-03-14T15:44:00.966Z,1.40
2023-03-14T15:46:31.005Z,1.65
2023-03-14T15:48:59.706Z,0.73
2023-03-14T15:51:27.983Z,1.98
2023-03-14T15:53:56.269Z,0.85
2023-03-14T15:56:26.770Z,0.63
2023-03-14T15:58:55.071Z,1.17
2023-03-14T16:01:23.366Z,0.38
2023-03-14T16:03:54.455Z,1.08
2023-03-14T16:06:22.628Z,1.08
2023-03-14T16:08:51.113Z,0.20
2023-03-14T16:11:22.970Z,0.65
2023-03-14T16:13:52.131Z,0.43
2023-03-14T16:16:20.750Z,0.57
2023-03-14T16:18:49.021Z,0.30
2023-03-14T16:21:19.779Z,1.65
2023-03-14T16:23:48.887Z,0.30
2023-03-14T16:26:20.424Z,0.50
2023-03-14T16:28:49.683Z,0.40
2023-03-14T16:31:21.947Z,0.50
2023-03-14T16:33:51.176Z,0.68
2023-03-14T16:36:19.795Z,0.57
2023-03-14T16:38:48.426Z,0.57
2023-03-14T16:41:19.379Z,0.52
2023-03-14T16:43:52.758Z,0.98
2023-03-14T16:46:23.283Z,0.75
2023-03-14T16:48:51.938Z,0.22
2023-03-14T16:51:20.310Z,0.52
2023-03-14T16:53:48.922Z,0.20
2023-03-14T16:56:17.565Z,0.85
2023-03-14T16:58:45.818Z,0.35
2023-03-14T17:01:18.936Z,0.52
2023-03-14T17:03:49.730Z,0.20
2023-03-14T17:06:26.879Z,0.30
2023-03-14T17:08:56.905Z,0.63
2023-03-14T17:11:25.225Z,0.10
2023-03-14T17:13:53.667Z,0.20
2023-03-14T17:16:23.564Z,0.32
2023-03-14T17:18:53.206Z,0.28
2023-03-14T17:21:22.314Z,0.20
2023-03-14T17:23:50.741Z,0.20
2023-03-14T17:26:19.690Z,0.45
2023-03-14T17:28:47.960Z,0.32
2023-03-14T17:31:18.935Z,1.13
2023-03-14T17:33:47.622Z,0.30
2023-03-14T17:36:16.391Z,0.10
2023-03-14T17:38:45.100Z,0.10
2023-03-14T17:41:15.798Z,0.65
2023-03-14T17:43:44.747Z,0.20
2023-03-14T17:46:18.372Z,0.30
2023-03-14T17:48:48.577Z,0.33
2023-03-14T17:51:17.556Z,0.20
2023-03-14T17:53:45.966Z,0.43
2023-03-14T17:56:14.353Z,0.73
2023-03-14T17:58:44.799Z,0.25
2023-03-14T18:01:18.981Z,0.20
2023-03-14T18:03:48.054Z,0.20
2023-03-14T18:06:18.097Z,0.65
2023-03-14T18:08:47.749Z,0.32
2023-03-14T18:11:16.318Z,0.57
2023-03-14T18:13:45.250Z,0.52
2023-03-14T18:16:17.762Z,0.22
2023-03-14T18:18:50.276Z,0.65
2023-03-14T18:21:19.546Z,0.20
2023-03-14T18:23:49.277Z,0.15
2023-03-14T18:26:17.520Z,0.10
2023-03-14T18:28:46.748Z,0.20
2023-03-14T18:31:19.022Z,0.70
2023-03-14T18:33:48.723Z,0.45
2023-03-14T18:36:17.448Z,0.20
2023-03-14T18:38:47.381Z,0.32
2023-03-14T18:41:17.923Z,2.00
2023-03-14T18:43:46.603Z,0.50
2023-03-14T18:46:15.216Z,0.47
2023-03-14T18:48:43.659Z,0.47
2023-03-14T18:51:16.015Z,0.38
2023-03-14T18:53:45.754Z,0.40
2023-03-14T18:56:14.474Z,0.15
2023-03-14T18:58:42.872Z,0.30
2023-03-14T19:01:13.258Z,0.73
2023-03-14T19:03:41.865Z,0.40
2023-03-14T19:06:11.093Z,0.40
2023-03-14T19:08:40.072Z,0.45
2023-03-14T19:11:10.038Z,1.67
2023-03-14T19:13:39.063Z,0.30
2023-03-14T19:16:08.412Z,0.38
2023-03-14T19:18:36.694Z,0.40
2023-03-14T19:21:08.388Z,0.15
2023-03-14T19:23:38.733Z,0.20
2023-03-14T19:26:07.930Z,0.20
2023-03-14T19:28:36.230Z,0.57
2023-03-14T19:31:05.893Z,0.95
2023-03-14T19:33:34.114Z,0.30
2023-03-14T19:36:03.280Z,0.52
2023-03-14T19:38:31.584Z,0.30
2023-03-14T19:41:00.604Z,0.50
2023-03-14T19:43:28.838Z,0.32
2023-03-14T19:45:57.170Z,0.50
2023-03-14T19:48:30.815Z,0.60
2023-03-14T19:51:01.360Z,0.10
2023-03-14T19:53:30.193Z,1.02
2023-03-14T19:55:58.574Z,0.30
2023-03-14T19:58:26.884Z,0.25
2023-03-14T20:00:58.040Z,0.30
2023-03-14T20:03:27.242Z,0.38
2023-03-14T20:05:55.696Z,0.63
2023-03-14T20:08:24.739Z,0.20
2023-03-14T20:10:53.159Z,0.55
2023-03-14T20:13:22.654Z,0.45
2023-03-14T20:15:55.212Z,0.40
2023-03-14T20:18:24.104Z,0.60
2023-03-14T20:20:53.170Z,0.40
2023-03-14T20:23:22.039Z,0.80
2023-03-14T20:25:58.320Z,0.40
2023-03-14T20:28:27.097Z,0.52
2023-03-14T20:30:55.780Z,0.55
2023-03-14T20:33:24.207Z,0.30
2023-03-14T20:36:00.754Z,0.55
2023-03-14T20:38:29.776Z,0.38
2023-03-14T20:41:00.182Z,0.30
2023-03-14T20:43:29.457Z,0.20
2023-03-14T20:46:02.305Z,0.57
2023-03-14T20:48:32.662Z,0.47
2023-03-14T20:51:02.417Z,0.17
2023-03-14T20:53:30.730Z,0.35
2023-03-14T20:55:59.419Z,0.52
2023-03-14T20:58:27.705Z,0.30
2023-03-14T21:00:57.842Z,0.82
2023-03-14T21:03:26.487Z,0.40
2023-03-14T21:05:54.916Z,0.63
2023-03-14T21:08:25.418Z,1.65
2023-03-14T21:10:55.900Z,0.85
2023-03-14T21:13:24.877Z,1.00
2023-03-14T21:15:53.500Z,2.05
2023-03-14T21:18:23.957Z,0.52
2023-03-14T21:20:55.576Z,0.30
2023-03-14T21:23:29.931Z,0.88
2023-03-14T21:25:58.401Z,0.30
2023-03-14T21:28:26.725Z,1.13
2023-03-14T21:30:55.716Z,0.28
2023-03-14T21:33:24.747Z,0.50
2023-03-14T21:35:54.051Z,0.65
2023-03-14T21:38:22.369Z,0.68
2023-03-14T21:40:57.914Z,1.77
2023-03-14T21:43:27.327Z,1.00
2023-03-14T21:45:55.934Z,0.30
2023-03-14T21:48:24.173Z,0.52
2023-03-14T21:50:52.933Z,0.50
2023-03-14T21:53:21.400Z,0.47
2023-03-14T21:55:49.933Z,0.30
2023-03-14T21:58:18.208Z,0.68
2023-03-14T22:00:50.159Z,0.30
2023-03-14T22:03:25.326Z,0.20
2023-03-14T22:05:53.644Z,0.30
2023-03-14T22:08:24.336Z,0.30
2023-03-14T22:10:55.187Z,0.98
2023-03-14T22:13:25.941Z,0.90
2023-03-14T22:15:54.412Z,0.85
2023-03-14T22:18:22.669Z,0.47
2023-03-14T22:20:50.989Z,0.85
2023-03-14T22:23:19.188Z,0.65
2023-03-14T22:25:52.147Z,0.68
2023-03-14T22:28:20.793Z,0.80
2023-03-14T22:30:50.466Z,0.40
2023-03-14T22:33:20.158Z,1.17
2023-03-14T22:35:53.684Z,1.45
2023-03-14T22:38:21.992Z,0.87
2023-03-14T22:40:50.261Z,0.65
2023-03-14T22:43:18.803Z,0.30
2023-03-14T22:45:47.995Z,0.25
2023-03-14T22:48:16.243Z,1.00
2023-03-14T22:50:44.597Z,0.80
2023-03-14T22:53:12.885Z,0.40
2023-03-14T22:55:41.545Z,0.32
2023-03-14T22:58:10.599Z,0.30
2023-03-14T23:00:40.051Z,0.80
2023-03-14T23:03:08.408Z,0.22
2023-03-14T23:05:36.749Z,1.50
2023-03-14T23:08:05.022Z,0.35
2023-03-14T23:10:33.944Z,0.40
2023-03-14T23:13:02.207Z,0.70
2023-03-14T23:15:30.494Z,0.38
2023-03-14T23:17:59.106Z,0.63
2023-03-14T23:20:28.607Z,0.63
2023-03-14T23:22:56.883Z,0.30
2023-03-14T23:25:25.248Z,0.25
2023-03-14T23:27:54.995Z,0.40
2023-03-14T23:30:23.680Z,2.15
2023-03-14T23:32:52.220Z,0.20
2023-03-14T23:35:20.876Z,0.63
2023-03-14T23:37:50.049Z,0.82
2023-03-14T23:40:18.925Z,0.30
2023-03-14T23:42:49.287Z,0.30
2023-03-14T23:45:17.662Z,0.77
2023-03-14T23:47:45.845Z,0.20
2023-03-14T23:50:14.104Z,0.20
2023-03-14T23:52:42.399Z,0.38
2023-03-14T23:55:11.425Z,0.20
2023-03-14T23:57:39.659Z,0.28
